KLM085 LOWI-LOWW
Flight info
| Callsign | KLM085 |
|---|---|
| Flight time | 0h 44m |
| Altitude | 29000 |
| Route | RTT DCT NEMAL NEMAL2W |
| Aircraft | A320/M-SDE3FGHIRWY/LB1 |
Departure
| Time | 2026-04-22 16:43 |
|---|---|
| Airport | Innsbruck Airport (LOWI) |
Arrival
| Time | 2026-04-22 17:28 |
|---|---|
| Airport | Vienna International Airport (LOWW) |
| Time | Latitude | Longitude | Altitude | Speed | Heading |
|---|---|---|---|---|---|
| 2026-04-22 16:23 | 47.25827 | 11.35110 | 1900 ft | 0 kts | 171° |
| 2026-04-22 16:33 | 47.25839 | 11.35108 | 1894 ft | 4 kts | 174° |
| 2026-04-22 16:33 | 47.25865 | 11.35108 | 1897 ft | 4 kts | 194° |
| 2026-04-22 16:33 | 47.25886 | 11.35125 | 1904 ft | 4 kts | 248° |
| 2026-04-22 16:34 | 47.25888 | 11.35134 | 1904 ft | 0 kts | 261° |
| 2026-04-22 16:37 | 47.25885 | 11.35108 | 1904 ft | 7 kts | 259° |
| 2026-04-22 16:37 | 47.25871 | 11.34995 | 1904 ft | 14 kts | 262° |
| 2026-04-22 16:38 | 47.25857 | 11.34864 | 1904 ft | 12 kts | 261° |
| 2026-04-22 16:38 | 47.25845 | 11.34748 | 1902 ft | 11 kts | 261° |
| 2026-04-22 16:38 | 47.25834 | 11.34645 | 1900 ft | 10 kts | 261° |
| 2026-04-22 16:38 | 47.25825 | 11.34553 | 1904 ft | 9 kts | 261° |
| 2026-04-22 16:39 | 47.25816 | 11.34472 | 1901 ft | 7 kts | 260° |
| 2026-04-22 16:39 | 47.25808 | 11.34401 | 1896 ft | 7 kts | 260° |
| 2026-04-22 16:39 | 47.25799 | 11.34321 | 1900 ft | 13 kts | 260° |
| 2026-04-22 16:39 | 47.25776 | 11.34124 | 1902 ft | 21 kts | 260° |
| 2026-04-22 16:40 | 47.25781 | 11.33951 | 1894 ft | 17 kts | 291° |
| 2026-04-22 16:40 | 47.25821 | 11.33856 | 1892 ft | 16 kts | 304° |
| 2026-04-22 16:40 | 47.25918 | 11.33537 | 1895 ft | 13 kts | 264° |
| 2026-04-22 16:41 | 47.25904 | 11.33409 | 1899 ft | 12 kts | 260° |
| 2026-04-22 16:41 | 47.25891 | 11.33295 | 1900 ft | 11 kts | 260° |
| 2026-04-22 16:41 | 47.25862 | 11.33211 | 1900 ft | 9 kts | 210° |
| 2026-04-22 16:41 | 47.25839 | 11.33142 | 1904 ft | 7 kts | 260° |
| 2026-04-22 16:42 | 47.25846 | 11.33082 | 1896 ft | 5 kts | 320° |
| 2026-04-22 16:42 | 47.25867 | 11.33080 | 1900 ft | 4 kts | 8° |
| 2026-04-22 16:42 | 47.25879 | 11.33103 | 1893 ft | 1 kts | 71° |
| 2026-04-22 16:42 | 47.25887 | 11.33184 | 1899 ft | 24 kts | 81° |
| 2026-04-22 16:43 | 47.25927 | 11.33534 | 1899 ft | 78 kts | 80° |
| 2026-04-22 16:43 | 47.26049 | 11.34659 | 1907 ft | 140 kts | 81° |
| 2026-04-22 16:43 | 47.26220 | 11.36153 | 2420 ft | 146 kts | 79° |
| 2026-04-22 16:43 | 47.26400 | 11.37592 | 3203 ft | 140 kts | 79° |
| 2026-04-22 16:44 | 47.26604 | 11.39092 | 3567 ft | 162 kts | 78° |
| 2026-04-22 16:44 | 47.26855 | 11.40809 | 3937 ft | 183 kts | 77° |
| 2026-04-22 16:44 | 47.27226 | 11.43351 | 4737 ft | 190 kts | 79° |
| 2026-04-22 16:44 | 47.27488 | 11.45247 | 5469 ft | 190 kts | 77° |
| 2026-04-22 16:45 | 47.27701 | 11.46528 | 5920 ft | 191 kts | 75° |
| 2026-04-22 16:45 | 47.28053 | 11.48425 | 6582 ft | 193 kts | 74° |
| 2026-04-22 16:45 | 47.28414 | 11.50306 | 7230 ft | 194 kts | 74° |
| 2026-04-22 16:45 | 47.28784 | 11.52229 | 7888 ft | 196 kts | 74° |
| 2026-04-22 16:46 | 47.29153 | 11.54163 | 8523 ft | 197 kts | 74° |
| 2026-04-22 16:46 | 47.29523 | 11.56115 | 9150 ft | 199 kts | 74° |
| 2026-04-22 16:46 | 47.29895 | 11.58086 | 9767 ft | 201 kts | 73° |
| 2026-04-22 16:46 | 47.30271 | 11.60077 | 10401 ft | 202 kts | 73° |
| 2026-04-22 16:47 | 47.30648 | 11.62075 | 11032 ft | 203 kts | 72° |
| 2026-04-22 16:47 | 47.31033 | 11.64080 | 11655 ft | 203 kts | 69° |
| 2026-04-22 16:47 | 47.31687 | 11.65925 | 12165 ft | 209 kts | 53° |
| 2026-04-22 16:47 | 47.32558 | 11.67762 | 12376 ft | 233 kts | 53° |
| 2026-04-22 16:48 | 47.33542 | 11.69820 | 12702 ft | 257 kts | 53° |
| 2026-04-22 16:48 | 47.34564 | 11.71950 | 13005 ft | 280 kts | 53° |
| 2026-04-22 16:48 | 47.35731 | 11.74393 | 13282 ft | 303 kts | 53° |
| 2026-04-22 16:48 | 47.36985 | 11.77029 | 13524 ft | 326 kts | 53° |
| 2026-04-22 16:49 | 47.38319 | 11.79847 | 13944 ft | 341 kts | 53° |
| 2026-04-22 16:49 | 47.39653 | 11.82775 | 14601 ft | 347 kts | 59° |
| 2026-04-22 16:49 | 47.40711 | 11.86017 | 15321 ft | 352 kts | 63° |
| 2026-04-22 16:49 | 47.41722 | 11.89328 | 16034 ft | 355 kts | 64° |
| 2026-04-22 16:50 | 47.42726 | 11.92676 | 16734 ft | 358 kts | 64° |
| 2026-04-22 16:50 | 47.43729 | 11.96006 | 17376 ft | 361 kts | 63° |
| 2026-04-22 16:50 | 47.44789 | 11.99391 | 18047 ft | 364 kts | 62° |
| 2026-04-22 16:50 | 47.45879 | 12.02777 | 18728 ft | 367 kts | 62° |
| 2026-04-22 16:51 | 47.46987 | 12.06182 | 19372 ft | 370 kts | 62° |
| 2026-04-22 16:51 | 47.48106 | 12.09622 | 20012 ft | 373 kts | 62° |
| 2026-04-22 16:51 | 47.49231 | 12.13102 | 20626 ft | 377 kts | 62° |
| 2026-04-22 16:51 | 47.50360 | 12.16616 | 21192 ft | 380 kts | 62° |
| 2026-04-22 16:52 | 47.51477 | 12.20119 | 21733 ft | 383 kts | 62° |
| 2026-04-22 16:52 | 47.52614 | 12.23695 | 22273 ft | 386 kts | 62° |
| 2026-04-22 16:52 | 47.53760 | 12.27303 | 22778 ft | 389 kts | 62° |
| 2026-04-22 16:52 | 47.54917 | 12.30940 | 23241 ft | 392 kts | 62° |
| 2026-04-22 16:53 | 47.56081 | 12.34606 | 23723 ft | 395 kts | 62° |
| 2026-04-22 16:53 | 47.57254 | 12.38302 | 24191 ft | 398 kts | 62° |
| 2026-04-22 16:53 | 47.58433 | 12.42021 | 24634 ft | 401 kts | 62° |
| 2026-04-22 16:53 | 47.59621 | 12.45774 | 25046 ft | 404 kts | 62° |
| 2026-04-22 16:54 | 47.60815 | 12.49549 | 25444 ft | 407 kts | 62° |
| 2026-04-22 16:54 | 47.61998 | 12.53306 | 25838 ft | 409 kts | 62° |
| 2026-04-22 16:54 | 47.63205 | 12.57152 | 26196 ft | 412 kts | 62° |
| 2026-04-22 16:54 | 47.64415 | 12.61013 | 26567 ft | 415 kts | 62° |
| 2026-04-22 16:55 | 47.65639 | 12.64911 | 26937 ft | 417 kts | 62° |
| 2026-04-22 16:55 | 47.66867 | 12.68828 | 27304 ft | 420 kts | 62° |
| 2026-04-22 16:55 | 47.68099 | 12.72766 | 27656 ft | 423 kts | 62° |
| 2026-04-22 16:55 | 47.69337 | 12.76731 | 27982 ft | 425 kts | 62° |
| 2026-04-22 16:56 | 47.70584 | 12.80722 | 28312 ft | 428 kts | 62° |
| 2026-04-22 16:56 | 47.71838 | 12.84745 | 28630 ft | 430 kts | 62° |
| 2026-04-22 16:56 | 47.73075 | 12.88723 | 28931 ft | 432 kts | 62° |
| 2026-04-22 16:56 | 47.74356 | 12.92861 | 29193 ft | 434 kts | 62° |
| 2026-04-22 16:57 | 47.75593 | 12.96869 | 29268 ft | 431 kts | 62° |
| 2026-04-22 16:57 | 47.78080 | 13.04931 | 29276 ft | 427 kts | 62° |
| 2026-04-22 16:58 | 47.80554 | 13.12950 | 29275 ft | 426 kts | 62° |
| 2026-04-22 16:58 | 47.83022 | 13.20974 | 29275 ft | 426 kts | 62° |
| 2026-04-22 16:59 | 47.85472 | 13.28993 | 29275 ft | 426 kts | 62° |
| 2026-04-22 16:59 | 47.87907 | 13.36959 | 29277 ft | 425 kts | 63° |
| 2026-04-22 17:00 | 47.90335 | 13.44977 | 29278 ft | 425 kts | 64° |
| 2026-04-22 17:00 | 47.91731 | 13.53438 | 29277 ft | 431 kts | 82° |
| 2026-04-22 17:00 | 47.91777 | 13.58035 | 29277 ft | 433 kts | 87° |
| 2026-04-22 17:01 | 47.91730 | 13.66950 | 29273 ft | 432 kts | 87° |
| 2026-04-22 17:01 | 47.91687 | 13.75900 | 29270 ft | 432 kts | 87° |
| 2026-04-22 17:02 | 47.91636 | 13.84839 | 29268 ft | 431 kts | 87° |
| 2026-04-22 17:02 | 47.91574 | 13.93765 | 29263 ft | 430 kts | 87° |
| 2026-04-22 17:03 | 47.91508 | 14.02669 | 29260 ft | 430 kts | 87° |
| 2026-04-22 17:03 | 47.91435 | 14.11519 | 29256 ft | 430 kts | 87° |
| 2026-04-22 17:04 | 47.91353 | 14.20419 | 29253 ft | 429 kts | 87° |
| 2026-04-22 17:04 | 47.91268 | 14.29310 | 29248 ft | 429 kts | 88° |
| 2026-04-22 17:05 | 47.91173 | 14.38218 | 29240 ft | 430 kts | 88° |
| 2026-04-22 17:05 | 47.91071 | 14.47065 | 29232 ft | 430 kts | 88° |
| 2026-04-22 17:06 | 47.90955 | 14.55979 | 29119 ft | 431 kts | 88° |
| 2026-04-22 17:06 | 47.90896 | 14.60440 | 28337 ft | 430 kts | 88° |
| 2026-04-22 17:06 | 47.90838 | 14.64876 | 27614 ft | 426 kts | 88° |
| 2026-04-22 17:07 | 47.90780 | 14.69274 | 26893 ft | 423 kts | 88° |
| 2026-04-22 17:07 | 47.90720 | 14.73648 | 26163 ft | 420 kts | 88° |
| 2026-04-22 17:07 | 47.90661 | 14.77925 | 25464 ft | 417 kts | 88° |
| 2026-04-22 17:07 | 47.90600 | 14.82223 | 24766 ft | 413 kts | 88° |
| 2026-04-22 17:08 | 47.90535 | 14.86482 | 24082 ft | 410 kts | 88° |
| 2026-04-22 17:08 | 47.90470 | 14.90713 | 23401 ft | 406 kts | 88° |
| 2026-04-22 17:08 | 47.90404 | 14.94904 | 22742 ft | 403 kts | 88° |
| 2026-04-22 17:08 | 47.90336 | 14.99054 | 22103 ft | 399 kts | 88° |
| 2026-04-22 17:09 | 47.90267 | 15.03160 | 21519 ft | 394 kts | 88° |
| 2026-04-22 17:09 | 47.90197 | 15.07223 | 20940 ft | 390 kts | 88° |
| 2026-04-22 17:09 | 47.90127 | 15.11238 | 20385 ft | 386 kts | 88° |
| 2026-04-22 17:09 | 47.90058 | 15.15222 | 19856 ft | 382 kts | 88° |
| 2026-04-22 17:10 | 47.89989 | 15.19102 | 19340 ft | 378 kts | 88° |
| 2026-04-22 17:10 | 47.89914 | 15.23000 | 18842 ft | 374 kts | 88° |
| 2026-04-22 17:10 | 47.89839 | 15.26890 | 18340 ft | 370 kts | 88° |
| 2026-04-22 17:10 | 47.89766 | 15.30664 | 17848 ft | 366 kts | 88° |
| 2026-04-22 17:11 | 47.89694 | 15.34439 | 17353 ft | 363 kts | 88° |
| 2026-04-22 17:11 | 47.89622 | 15.38200 | 16871 ft | 366 kts | 88° |
| 2026-04-22 17:11 | 47.89550 | 15.42019 | 16421 ft | 369 kts | 88° |
| 2026-04-22 17:11 | 47.89478 | 15.45832 | 15961 ft | 368 kts | 89° |
| 2026-04-22 17:12 | 47.89188 | 15.49570 | 15506 ft | 369 kts | 98° |
| 2026-04-22 17:12 | 47.88579 | 15.53285 | 15041 ft | 369 kts | 101° |
| 2026-04-22 17:12 | 47.87962 | 15.56974 | 14580 ft | 367 kts | 101° |
| 2026-04-22 17:12 | 47.87347 | 15.60652 | 14116 ft | 365 kts | 101° |
| 2026-04-22 17:13 | 47.86736 | 15.64307 | 13661 ft | 363 kts | 101° |
| 2026-04-22 17:13 | 47.86126 | 15.67946 | 13211 ft | 361 kts | 101° |
| 2026-04-22 17:13 | 47.85520 | 15.71567 | 12753 ft | 360 kts | 101° |
| 2026-04-22 17:13 | 47.84913 | 15.75171 | 12305 ft | 358 kts | 101° |
| 2026-04-22 17:14 | 47.84308 | 15.78759 | 11860 ft | 356 kts | 101° |
| 2026-04-22 17:14 | 47.83705 | 15.82330 | 11409 ft | 355 kts | 101° |
| 2026-04-22 17:14 | 47.83111 | 15.85834 | 10974 ft | 351 kts | 101° |
| 2026-04-22 17:14 | 47.82523 | 15.89280 | 10826 ft | 335 kts | 101° |
| 2026-04-22 17:15 | 47.82142 | 15.91516 | 10739 ft | 325 kts | 101° |
| 2026-04-22 17:15 | 47.81422 | 15.95718 | 10566 ft | 308 kts | 101° |
| 2026-04-22 17:15 | 47.80898 | 15.98755 | 10439 ft | 298 kts | 101° |
| 2026-04-22 17:15 | 47.80392 | 16.01707 | 10148 ft | 292 kts | 101° |
| 2026-04-22 17:16 | 47.79904 | 16.04566 | 10064 ft | 279 kts | 101° |
| 2026-04-22 17:16 | 47.79432 | 16.07310 | 9924 ft | 269 kts | 101° |
| 2026-04-22 17:16 | 47.78977 | 16.09982 | 9640 ft | 265 kts | 100° |
| 2026-04-22 17:16 | 47.78525 | 16.12622 | 9376 ft | 260 kts | 101° |
| 2026-04-22 17:17 | 47.78080 | 16.15207 | 9121 ft | 256 kts | 101° |
| 2026-04-22 17:17 | 47.77648 | 16.17715 | 8866 ft | 251 kts | 101° |
| 2026-04-22 17:17 | 47.77252 | 16.20209 | 8617 ft | 244 kts | 94° |
| 2026-04-22 17:17 | 47.77182 | 16.22670 | 8382 ft | 234 kts | 81° |
| 2026-04-22 17:18 | 47.77472 | 16.24989 | 8154 ft | 224 kts | 69° |
| 2026-04-22 17:18 | 47.78068 | 16.27082 | 7931 ft | 218 kts | 57° |
| 2026-04-22 17:18 | 47.78818 | 16.29029 | 7712 ft | 217 kts | 57° |
| 2026-04-22 17:18 | 47.79566 | 16.30979 | 7489 ft | 216 kts | 57° |
| 2026-04-22 17:19 | 47.81047 | 16.34860 | 7057 ft | 215 kts | 57° |
| 2026-04-22 17:19 | 47.82509 | 16.38697 | 6627 ft | 214 kts | 57° |
| 2026-04-22 17:20 | 47.83970 | 16.42553 | 6196 ft | 213 kts | 57° |
| 2026-04-22 17:20 | 47.85420 | 16.46379 | 5766 ft | 212 kts | 57° |
| 2026-04-22 17:21 | 47.86143 | 16.48289 | 5556 ft | 212 kts | 57° |
| 2026-04-22 17:21 | 47.87577 | 16.52077 | 5131 ft | 211 kts | 57° |
| 2026-04-22 17:22 | 47.89008 | 16.55869 | 4707 ft | 210 kts | 57° |
| 2026-04-22 17:22 | 47.89722 | 16.57763 | 4498 ft | 210 kts | 57° |
| 2026-04-22 17:22 | 47.91147 | 16.61538 | 4070 ft | 206 kts | 57° |
| 2026-04-22 17:23 | 47.91983 | 16.63226 | 3811 ft | 199 kts | 39° |
| 2026-04-22 17:23 | 47.94306 | 16.64823 | 3484 ft | 172 kts | 4° |
| 2026-04-22 17:23 | 47.95441 | 16.64759 | 3284 ft | 157 kts | 348° |
| 2026-04-22 17:24 | 47.96445 | 16.64364 | 3101 ft | 146 kts | 344° |
| 2026-04-22 17:24 | 47.97397 | 16.63964 | 2913 ft | 139 kts | 344° |
| 2026-04-22 17:24 | 47.98318 | 16.63577 | 2737 ft | 137 kts | 344° |
| 2026-04-22 17:24 | 47.99227 | 16.63196 | 2560 ft | 135 kts | 344° |
| 2026-04-22 17:25 | 48.00129 | 16.62816 | 2390 ft | 134 kts | 344° |
| 2026-04-22 17:25 | 48.01028 | 16.62438 | 2206 ft | 134 kts | 343° |
| 2026-04-22 17:25 | 48.01921 | 16.62061 | 2033 ft | 134 kts | 344° |
| 2026-04-22 17:25 | 48.02817 | 16.61684 | 1848 ft | 134 kts | 344° |
| 2026-04-22 17:26 | 48.03705 | 16.61310 | 1679 ft | 134 kts | 344° |
| 2026-04-22 17:26 | 48.04604 | 16.60931 | 1491 ft | 134 kts | 344° |
| 2026-04-22 17:26 | 48.05503 | 16.60552 | 1314 ft | 134 kts | 344° |
| 2026-04-22 17:26 | 48.06399 | 16.60174 | 1138 ft | 134 kts | 344° |
| 2026-04-22 17:27 | 48.07296 | 16.59796 | 957 ft | 134 kts | 344° |
| 2026-04-22 17:27 | 48.08195 | 16.59417 | 778 ft | 134 kts | 344° |
| 2026-04-22 17:27 | 48.09091 | 16.59038 | 621 ft | 130 kts | 344° |
| 2026-04-22 17:27 | 48.09775 | 16.58749 | 614 ft | 62 kts | 344° |
| 2026-04-22 17:28 | 48.09925 | 16.58686 | 620 ft | 4 kts | 344° |
| 2026-04-22 17:28 | 48.10011 | 16.58603 | 609 ft | 22 kts | 312° |
| 2026-04-22 17:28 | 48.10094 | 16.58399 | 612 ft | 24 kts | 298° |
| 2026-04-22 17:28 | 48.10238 | 16.58272 | 617 ft | 26 kts | 345° |
| 2026-04-22 17:29 | 48.10416 | 16.58200 | 616 ft | 27 kts | 345° |
| 2026-04-22 17:29 | 48.10605 | 16.58123 | 613 ft | 29 kts | 344° |
| 2026-04-22 17:29 | 48.10800 | 16.58034 | 619 ft | 30 kts | 343° |
| 2026-04-22 17:29 | 48.11003 | 16.57945 | 618 ft | 31 kts | 344° |
| 2026-04-22 17:30 | 48.11213 | 16.57862 | 614 ft | 32 kts | 344° |
| 2026-04-22 17:30 | 48.11423 | 16.57772 | 614 ft | 30 kts | 344° |
| 2026-04-22 17:30 | 48.11512 | 16.57656 | 617 ft | 18 kts | 295° |
| 2026-04-22 17:30 | 48.11567 | 16.57488 | 615 ft | 16 kts | 296° |
| 2026-04-22 17:31 | 48.11618 | 16.57329 | 620 ft | 18 kts | 296° |
| 2026-04-22 17:31 | 48.11663 | 16.57191 | 609 ft | 8 kts | 285° |
| 2026-04-22 17:31 | 48.11636 | 16.57154 | 609 ft | 5 kts | 208° |
| 2026-04-22 17:31 | 48.11608 | 16.57134 | 609 ft | 4 kts | 204° |
| 2026-04-22 17:32 | 48.11593 | 16.57124 | 613 ft | 0 kts | 206° |